sensor_id;sensor_type;location;lat;lon;timestamp;P1;durP1;ratioP1;P2;durP2;ratioP2
49412;SDS011;35493;50.276;9.372;2022-11-20T00:00:49;17.20;;;9.10;;
49412;SDS011;35493;50.276;9.372;2022-11-20T00:03:17;18.40;;;9.43;;
49412;SDS011;35493;50.276;9.372;2022-11-20T00:05:44;18.52;;;10.23;;
49412;SDS011;35493;50.276;9.372;2022-11-20T00:08:11;17.83;;;9.93;;
49412;SDS011;35493;50.276;9.372;2022-11-20T00:10:39;20.42;;;10.57;;
49412;SDS011;35493;50.276;9.372;2022-11-20T00:13:06;19.60;;;10.52;;
49412;SDS011;35493;50.276;9.372;2022-11-20T00:15:35;22.17;;;10.98;;
49412;SDS011;35493;50.276;9.372;2022-11-20T00:18:02;17.40;;;10.05;;
49412;SDS011;35493;50.276;9.372;2022-11-20T00:20:29;18.25;;;10.18;;
49412;SDS011;35493;50.276;9.372;2022-11-20T00:22:56;16.38;;;9.48;;
49412;SDS011;35493;50.276;9.372;2022-11-20T00:25:23;19.83;;;9.80;;
49412;SDS011;35493;50.276;9.372;2022-11-20T00:27:50;19.80;;;10.20;;
49412;SDS011;35493;50.276;9.372;2022-11-20T00:30:17;17.85;;;10.05;;
49412;SDS011;35493;50.276;9.372;2022-11-20T00:32:46;18.08;;;9.68;;
49412;SDS011;35493;50.276;9.372;2022-11-20T00:35:13;18.23;;;10.07;;
49412;SDS011;35493;50.276;9.372;2022-11-20T00:37:40;19.45;;;9.88;;
49412;SDS011;35493;50.276;9.372;2022-11-20T00:40:09;18.52;;;9.90;;
49412;SDS011;35493;50.276;9.372;2022-11-20T00:42:37;19.08;;;9.65;;
49412;SDS011;35493;50.276;9.372;2022-11-20T00:45:04;16.83;;;9.02;;
49412;SDS011;35493;50.276;9.372;2022-11-20T00:47:32;19.35;;;10.55;;
49412;SDS011;35493;50.276;9.372;2022-11-20T00:50:00;19.30;;;9.70;;
49412;SDS011;35493;50.276;9.372;2022-11-20T00:52:27;19.42;;;9.77;;
49412;SDS011;35493;50.276;9.372;2022-11-20T00:54:54;18.42;;;9.77;;
49412;SDS011;35493;50.276;9.372;2022-11-20T00:57:21;18.83;;;9.38;;
49412;SDS011;35493;50.276;9.372;2022-11-20T00:59:48;18.20;;;10.73;;
49412;SDS011;35493;50.276;9.372;2022-11-20T01:02:15;20.27;;;10.35;;
49412;SDS011;35493;50.276;9.372;2022-11-20T01:04:42;19.45;;;10.38;;
49412;SDS011;35493;50.276;9.372;2022-11-20T01:07:10;19.10;;;9.48;;
49412;SDS011;35493;50.276;9.372;2022-11-20T01:09:37;19.17;;;9.20;;
49412;SDS011;35493;50.276;9.372;2022-11-20T01:12:07;15.47;;;8.67;;
49412;SDS011;35493;50.276;9.372;2022-11-20T01:14:34;22.05;;;9.88;;
49412;SDS011;35493;50.276;9.372;2022-11-20T01:17:01;18.50;;;9.55;;
49412;SDS011;35493;50.276;9.372;2022-11-20T01:19:31;19.48;;;9.80;;
49412;SDS011;35493;50.276;9.372;2022-11-20T01:21:58;17.70;;;9.30;;
49412;SDS011;35493;50.276;9.372;2022-11-20T01:24:26;20.88;;;9.80;;
49412;SDS011;35493;50.276;9.372;2022-11-20T01:26:53;20.02;;;10.73;;
49412;SDS011;35493;50.276;9.372;2022-11-20T01:29:21;19.52;;;10.02;;
49412;SDS011;35493;50.276;9.372;2022-11-20T01:31:49;19.42;;;9.43;;
49412;SDS011;35493;50.276;9.372;2022-11-20T01:34:17;18.02;;;10.63;;
49412;SDS011;35493;50.276;9.372;2022-11-20T01:36:47;20.20;;;10.25;;
49412;SDS011;35493;50.276;9.372;2022-11-20T01:39:16;18.98;;;10.55;;
49412;SDS011;35493;50.276;9.372;2022-11-20T01:41:45;18.23;;;9.90;;
49412;SDS011;35493;50.276;9.372;2022-11-20T01:47:20;18.10;;;9.63;;
49412;SDS011;35493;50.276;9.372;2022-11-20T01:49:52;15.85;;;8.95;;
49412;SDS011;35493;50.276;9.372;2022-11-20T01:54:51;20.23;;;9.88;;
49412;SDS011;35493;50.276;9.372;2022-11-20T01:57:23;20.08;;;9.40;;
49412;SDS011;35493;50.276;9.372;2022-11-20T01:59:53;19.55;;;10.07;;
49412;SDS011;35493;50.276;9.372;2022-11-20T02:02:37;20.80;;;9.65;;
49412;SDS011;35493;50.276;9.372;2022-11-20T02:05:12;19.55;;;9.90;;
49412;SDS011;35493;50.276;9.372;2022-11-20T02:07:45;20.63;;;10.45;;
49412;SDS011;35493;50.276;9.372;2022-11-20T02:10:13;21.08;;;10.07;;
49412;SDS011;35493;50.276;9.372;2022-11-20T02:12:42;19.65;;;10.13;;
49412;SDS011;35493;50.276;9.372;2022-11-20T02:15:26;19.50;;;10.18;;
49412;SDS011;35493;50.276;9.372;2022-11-20T02:17:53;18.88;;;10.10;;
49412;SDS011;35493;50.276;9.372;2022-11-20T02:20:21;18.48;;;9.82;;
49412;SDS011;35493;50.276;9.372;2022-11-20T02:22:51;20.77;;;10.88;;
49412;SDS011;35493;50.276;9.372;2022-11-20T02:25:22;18.58;;;9.45;;
49412;SDS011;35493;50.276;9.372;2022-11-20T02:27:53;22.60;;;10.85;;
49412;SDS011;35493;50.276;9.372;2022-11-20T02:30:20;20.10;;;10.98;;
49412;SDS011;35493;50.276;9.372;2022-11-20T02:32:47;20.25;;;10.65;;
49412;SDS011;35493;50.276;9.372;2022-11-20T02:38:11;19.48;;;10.60;;
49412;SDS011;35493;50.276;9.372;2022-11-20T02:40:40;20.92;;;10.98;;
49412;SDS011;35493;50.276;9.372;2022-11-20T02:43:08;20.30;;;10.32;;
49412;SDS011;35493;50.276;9.372;2022-11-20T02:45:35;21.60;;;11.43;;
49412;SDS011;35493;50.276;9.372;2022-11-20T02:48:05;21.60;;;11.07;;
49412;SDS011;35493;50.276;9.372;2022-11-20T02:50:32;20.50;;;10.40;;
49412;SDS011;35493;50.276;9.372;2022-11-20T02:52:59;20.70;;;9.98;;
49412;SDS011;35493;50.276;9.372;2022-11-20T02:55:26;20.60;;;10.27;;
49412;SDS011;35493;50.276;9.372;2022-11-20T02:57:54;21.05;;;9.38;;
49412;SDS011;35493;50.276;9.372;2022-11-20T03:00:21;20.77;;;10.27;;
49412;SDS011;35493;50.276;9.372;2022-11-20T03:02:48;20.25;;;10.18;;
49412;SDS011;35493;50.276;9.372;2022-11-20T03:05:16;18.38;;;10.48;;
49412;SDS011;35493;50.276;9.372;2022-11-20T03:07:49;19.33;;;9.75;;
49412;SDS011;35493;50.276;9.372;2022-11-20T03:10:17;19.38;;;9.77;;
49412;SDS011;35493;50.276;9.372;2022-11-20T03:12:43;18.33;;;10.10;;
49412;SDS011;35493;50.276;9.372;2022-11-20T03:15:12;22.13;;;10.88;;
49412;SDS011;35493;50.276;9.372;2022-11-20T03:17:39;20.05;;;10.90;;
49412;SDS011;35493;50.276;9.372;2022-11-20T03:20:07;20.77;;;10.60;;
49412;SDS011;35493;50.276;9.372;2022-11-20T03:22:35;18.40;;;10.52;;
49412;SDS011;35493;50.276;9.372;2022-11-20T03:25:02;21.23;;;10.35;;
49412;SDS011;35493;50.276;9.372;2022-11-20T03:27:31;17.73;;;9.70;;
49412;SDS011;35493;50.276;9.372;2022-11-20T03:29:58;19.15;;;9.63;;
49412;SDS011;35493;50.276;9.372;2022-11-20T03:32:29;18.50;;;10.90;;
49412;SDS011;35493;50.276;9.372;2022-11-20T03:34:57;20.85;;;11.13;;
49412;SDS011;35493;50.276;9.372;2022-11-20T03:37:23;19.65;;;10.35;;
49412;SDS011;35493;50.276;9.372;2022-11-20T03:39:50;21.02;;;11.23;;
49412;SDS011;35493;50.276;9.372;2022-11-20T03:42:17;21.48;;;10.57;;
49412;SDS011;35493;50.276;9.372;2022-11-20T03:45:04;19.80;;;9.35;;
49412;SDS011;35493;50.276;9.372;2022-11-20T03:47:33;18.73;;;10.00;;
49412;SDS011;35493;50.276;9.372;2022-11-20T03:50:02;19.40;;;10.05;;
49412;SDS011;35493;50.276;9.372;2022-11-20T03:52:29;20.20;;;9.95;;
49412;SDS011;35493;50.276;9.372;2022-11-20T03:54:56;17.45;;;10.07;;
49412;SDS011;35493;50.276;9.372;2022-11-20T03:57:23;19.98;;;10.43;;
49412;SDS011;35493;50.276;9.372;2022-11-20T03:59:50;20.48;;;10.60;;
49412;SDS011;35493;50.276;9.372;2022-11-20T04:02:21;21.17;;;11.05;;
49412;SDS011;35493;50.276;9.372;2022-11-20T04:04:50;19.15;;;10.38;;
49412;SDS011;35493;50.276;9.372;2022-11-20T04:07:19;22.15;;;11.15;;
49412;SDS011;35493;50.276;9.372;2022-11-20T04:09:46;18.95;;;9.93;;
49412;SDS011;35493;50.276;9.372;2022-11-20T04:12:13;21.88;;;11.10;;
49412;SDS011;35493;50.276;9.372;2022-11-20T04:14:40;18.70;;;9.93;;
49412;SDS011;35493;50.276;9.372;2022-11-20T04:17:07;17.17;;;9.38;;
49412;SDS011;35493;50.276;9.372;2022-11-20T04:19:34;19.50;;;10.85;;
49412;SDS011;35493;50.276;9.372;2022-11-20T04:22:02;20.98;;;10.38;;
49412;SDS011;35493;50.276;9.372;2022-11-20T04:24:29;21.42;;;9.68;;
49412;SDS011;35493;50.276;9.372;2022-11-20T04:26:56;19.50;;;10.02;;
49412;SDS011;35493;50.276;9.372;2022-11-20T04:29:23;18.60;;;9.77;;
49412;SDS011;35493;50.276;9.372;2022-11-20T04:31:50;19.23;;;10.07;;
49412;SDS011;35493;50.276;9.372;2022-11-20T04:34:17;17.23;;;9.90;;
49412;SDS011;35493;50.276;9.372;2022-11-20T04:36:44;19.75;;;9.93;;
49412;SDS011;35493;50.276;9.372;2022-11-20T04:39:12;19.58;;;9.98;;
49412;SDS011;35493;50.276;9.372;2022-11-20T04:41:41;20.50;;;10.30;;
49412;SDS011;35493;50.276;9.372;2022-11-20T04:44:10;18.73;;;10.05;;
49412;SDS011;35493;50.276;9.372;2022-11-20T04:46:38;20.38;;;10.20;;
49412;SDS011;35493;50.276;9.372;2022-11-20T04:49:06;17.40;;;10.27;;
49412;SDS011;35493;50.276;9.372;2022-11-20T04:51:33;20.48;;;9.80;;
49412;SDS011;35493;50.276;9.372;2022-11-20T04:54:01;19.60;;;10.50;;
49412;SDS011;35493;50.276;9.372;2022-11-20T04:56:30;18.30;;;9.85;;
49412;SDS011;35493;50.276;9.372;2022-11-20T04:58:59;21.23;;;10.25;;
49412;SDS011;35493;50.276;9.372;2022-11-20T05:01:33;20.90;;;10.57;;
49412;SDS011;35493;50.276;9.372;2022-11-20T05:04:03;20.88;;;11.30;;
49412;SDS011;35493;50.276;9.372;2022-11-20T05:06:31;19.83;;;10.43;;
49412;SDS011;35493;50.276;9.372;2022-11-20T05:08:58;21.67;;;11.07;;
49412;SDS011;35493;50.276;9.372;2022-11-20T05:11:26;20.40;;;9.88;;
49412;SDS011;35493;50.276;9.372;2022-11-20T05:13:55;20.92;;;9.85;;
49412;SDS011;35493;50.276;9.372;2022-11-20T05:16:25;18.98;;;9.77;;
49412;SDS011;35493;50.276;9.372;2022-11-20T05:18:53;19.58;;;10.45;;
49412;SDS011;35493;50.276;9.372;2022-11-20T05:21:20;20.10;;;9.73;;
49412;SDS011;35493;50.276;9.372;2022-11-20T05:23:48;21.23;;;11.27;;
49412;SDS011;35493;50.276;9.372;2022-11-20T05:26:16;23.40;;;10.70;;
49412;SDS011;35493;50.276;9.372;2022-11-20T05:28:44;20.70;;;10.40;;
49412;SDS011;35493;50.276;9.372;2022-11-20T05:31:13;18.77;;;10.20;;
49412;SDS011;35493;50.276;9.372;2022-11-20T05:33:41;18.35;;;10.18;;
49412;SDS011;35493;50.276;9.372;2022-11-20T05:36:10;20.65;;;10.00;;
49412;SDS011;35493;50.276;9.372;2022-11-20T05:38:38;19.13;;;10.10;;
49412;SDS011;35493;50.276;9.372;2022-11-20T05:41:06;19.55;;;8.82;;
49412;SDS011;35493;50.276;9.372;2022-11-20T05:43:35;20.10;;;10.52;;
49412;SDS011;35493;50.276;9.372;2022-11-20T05:46:06;18.95;;;10.85;;
49412;SDS011;35493;50.276;9.372;2022-11-20T05:48:36;22.48;;;11.82;;
49412;SDS011;35493;50.276;9.372;2022-11-20T05:51:05;20.17;;;10.48;;
49412;SDS011;35493;50.276;9.372;2022-11-20T05:53:33;16.70;;;9.93;;
49412;SDS011;35493;50.276;9.372;2022-11-20T05:56:02;22.90;;;11.00;;
49412;SDS011;35493;50.276;9.372;2022-11-20T05:58:31;17.00;;;9.80;;
49412;SDS011;35493;50.276;9.372;2022-11-20T06:01:03;20.40;;;11.13;;
49412;SDS011;35493;50.276;9.372;2022-11-20T06:03:31;19.63;;;10.43;;
49412;SDS011;35493;50.276;9.372;2022-11-20T06:06:00;18.95;;;10.20;;
49412;SDS011;35493;50.276;9.372;2022-11-20T06:08:33;20.05;;;10.25;;
49412;SDS011;35493;50.276;9.372;2022-11-20T06:11:03;20.42;;;10.10;;
49412;SDS011;35493;50.276;9.372;2022-11-20T06:13:30;20.15;;;10.93;;
49412;SDS011;35493;50.276;9.372;2022-11-20T06:15:57;19.13;;;9.95;;
49412;SDS011;35493;50.276;9.372;2022-11-20T06:18:28;19.35;;;10.40;;
49412;SDS011;35493;50.276;9.372;2022-11-20T06:21:00;19.35;;;9.85;;
49412;SDS011;35493;50.276;9.372;2022-11-20T06:23:29;19.65;;;10.18;;
49412;SDS011;35493;50.276;9.372;2022-11-20T06:25:57;19.83;;;10.52;;
49412;SDS011;35493;50.276;9.372;2022-11-20T06:28:26;18.05;;;9.95;;
49412;SDS011;35493;50.276;9.372;2022-11-20T06:30:55;18.80;;;10.35;;
49412;SDS011;35493;50.276;9.372;2022-11-20T06:33:22;21.60;;;9.73;;
49412;SDS011;35493;50.276;9.372;2022-11-20T06:35:49;21.60;;;10.82;;
49412;SDS011;35493;50.276;9.372;2022-11-20T06:38:23;20.38;;;10.45;;
49412;SDS011;35493;50.276;9.372;2022-11-20T06:40:50;22.40;;;11.25;;
49412;SDS011;35493;50.276;9.372;2022-11-20T06:43:17;19.85;;;10.80;;
49412;SDS011;35493;50.276;9.372;2022-11-20T06:45:44;19.80;;;9.98;;
49412;SDS011;35493;50.276;9.372;2022-11-20T06:48:11;20.02;;;10.30;;
49412;SDS011;35493;50.276;9.372;2022-11-20T06:50:38;21.30;;;11.00;;
49412;SDS011;35493;50.276;9.372;2022-11-20T06:53:05;21.73;;;10.63;;
49412;SDS011;35493;50.276;9.372;2022-11-20T06:55:33;19.48;;;10.52;;
49412;SDS011;35493;50.276;9.372;2022-11-20T06:58:00;18.27;;;10.40;;
49412;SDS011;35493;50.276;9.372;2022-11-20T07:00:27;18.23;;;9.93;;
49412;SDS011;35493;50.276;9.372;2022-11-20T07:02:54;20.52;;;9.88;;
49412;SDS011;35493;50.276;9.372;2022-11-20T07:05:20;19.58;;;10.63;;
49412;SDS011;35493;50.276;9.372;2022-11-20T07:07:48;20.30;;;10.48;;
49412;SDS011;35493;50.276;9.372;2022-11-20T07:10:15;20.60;;;10.55;;
49412;SDS011;35493;50.276;9.372;2022-11-20T07:12:48;20.67;;;10.43;;
49412;SDS011;35493;50.276;9.372;2022-11-20T07:15:15;19.05;;;10.88;;
49412;SDS011;35493;50.276;9.372;2022-11-20T07:17:42;22.33;;;11.23;;
49412;SDS011;35493;50.276;9.372;2022-11-20T07:20:09;17.52;;;9.63;;
49412;SDS011;35493;50.276;9.372;2022-11-20T07:22:37;19.05;;;10.10;;
49412;SDS011;35493;50.276;9.372;2022-11-20T07:25:04;19.52;;;9.77;;
49412;SDS011;35493;50.276;9.372;2022-11-20T07:27:32;16.65;;;10.00;;
49412;SDS011;35493;50.276;9.372;2022-11-20T07:30:01;20.48;;;10.23;;
49412;SDS011;35493;50.276;9.372;2022-11-20T07:32:28;21.23;;;10.93;;
49412;SDS011;35493;50.276;9.372;2022-11-20T07:34:57;17.33;;;9.93;;
49412;SDS011;35493;50.276;9.372;2022-11-20T07:37:24;22.48;;;10.63;;
49412;SDS011;35493;50.276;9.372;2022-11-20T07:39:51;22.38;;;11.38;;
49412;SDS011;35493;50.276;9.372;2022-11-20T07:42:18;19.10;;;10.65;;
49412;SDS011;35493;50.276;9.372;2022-11-20T07:44:45;18.33;;;9.98;;
49412;SDS011;35493;50.276;9.372;2022-11-20T07:47:13;18.23;;;9.93;;
49412;SDS011;35493;50.276;9.372;2022-11-20T07:49:40;18.17;;;10.32;;
49412;SDS011;35493;50.276;9.372;2022-11-20T07:52:07;19.98;;;10.05;;
49412;SDS011;35493;50.276;9.372;2022-11-20T07:54:34;17.67;;;9.20;;
49412;SDS011;35493;50.276;9.372;2022-11-20T07:57:01;19.75;;;10.27;;
49412;SDS011;35493;50.276;9.372;2022-11-20T07:59:29;22.00;;;11.05;;
49412;SDS011;35493;50.276;9.372;2022-11-20T08:01:56;18.50;;;9.73;;
49412;SDS011;35493;50.276;9.372;2022-11-20T08:04:25;19.60;;;10.13;;
49412;SDS011;35493;50.276;9.372;2022-11-20T08:06:52;16.13;;;8.93;;
49412;SDS011;35493;50.276;9.372;2022-11-20T08:09:19;20.70;;;11.00;;
49412;SDS011;35493;50.276;9.372;2022-11-20T08:11:46;17.45;;;9.65;;
49412;SDS011;35493;50.276;9.372;2022-11-20T08:14:30;18.88;;;9.88;;
49412;SDS011;35493;50.276;9.372;2022-11-20T08:17:00;20.52;;;10.10;;
49412;SDS011;35493;50.276;9.372;2022-11-20T08:19:29;21.02;;;10.77;;
49412;SDS011;35493;50.276;9.372;2022-11-20T08:21:55;20.20;;;10.27;;
49412;SDS011;35493;50.276;9.372;2022-11-20T08:24:22;21.30;;;11.27;;
49412;SDS011;35493;50.276;9.372;2022-11-20T08:26:49;18.27;;;10.02;;
49412;SDS011;35493;50.276;9.372;2022-11-20T08:29:19;18.60;;;9.73;;
49412;SDS011;35493;50.276;9.372;2022-11-20T08:31:47;18.70;;;9.65;;
49412;SDS011;35493;50.276;9.372;2022-11-20T08:34:14;19.70;;;10.07;;
49412;SDS011;35493;50.276;9.372;2022-11-20T08:36:43;19.58;;;10.50;;
49412;SDS011;35493;50.276;9.372;2022-11-20T08:39:11;21.70;;;11.15;;
49412;SDS011;35493;50.276;9.372;2022-11-20T08:41:38;19.00;;;10.55;;
49412;SDS011;35493;50.276;9.372;2022-11-20T08:44:06;20.50;;;10.60;;
49412;SDS011;35493;50.276;9.372;2022-11-20T08:46:35;21.33;;;11.68;;
49412;SDS011;35493;50.276;9.372;2022-11-20T08:49:03;19.38;;;9.93;;
49412;SDS011;35493;50.276;9.372;2022-11-20T08:51:30;23.52;;;10.52;;
49412;SDS011;35493;50.276;9.372;2022-11-20T08:54:01;23.80;;;11.27;;
49412;SDS011;35493;50.276;9.372;2022-11-20T08:56:28;24.10;;;11.15;;
49412;SDS011;35493;50.276;9.372;2022-11-20T08:58:55;23.63;;;12.15;;
49412;SDS011;35493;50.276;9.372;2022-11-20T09:01:24;21.83;;;10.93;;
49412;SDS011;35493;50.276;9.372;2022-11-20T09:03:51;25.15;;;12.68;;
49412;SDS011;35493;50.276;9.372;2022-11-20T09:06:18;26.13;;;11.95;;
49412;SDS011;35493;50.276;9.372;2022-11-20T09:08:45;26.55;;;12.50;;
49412;SDS011;35493;50.276;9.372;2022-11-20T09:11:14;26.90;;;12.75;;
49412;SDS011;35493;50.276;9.372;2022-11-20T09:13:41;24.98;;;12.23;;
49412;SDS011;35493;50.276;9.372;2022-11-20T09:16:08;26.58;;;13.13;;
49412;SDS011;35493;50.276;9.372;2022-11-20T09:18:35;26.77;;;12.55;;
49412;SDS011;35493;50.276;9.372;2022-11-20T09:21:04;26.23;;;12.90;;
49412;SDS011;35493;50.276;9.372;2022-11-20T09:23:34;29.95;;;13.35;;
49412;SDS011;35493;50.276;9.372;2022-11-20T09:26:02;28.08;;;13.68;;
49412;SDS011;35493;50.276;9.372;2022-11-20T09:28:31;26.42;;;12.07;;
49412;SDS011;35493;50.276;9.372;2022-11-20T09:30:58;22.20;;;12.05;;
49412;SDS011;35493;50.276;9.372;2022-11-20T09:33:26;27.85;;;12.73;;
49412;SDS011;35493;50.276;9.372;2022-11-20T09:35:53;24.25;;;12.52;;
49412;SDS011;35493;50.276;9.372;2022-11-20T09:38:20;27.98;;;13.30;;
49412;SDS011;35493;50.276;9.372;2022-11-20T09:40:53;23.63;;;12.10;;
49412;SDS011;35493;50.276;9.372;2022-11-20T09:43:25;29.05;;;13.00;;
49412;SDS011;35493;50.276;9.372;2022-11-20T09:46:05;27.95;;;12.85;;
49412;SDS011;35493;50.276;9.372;2022-11-20T09:48:42;29.02;;;13.45;;
49412;SDS011;35493;50.276;9.372;2022-11-20T09:51:26;24.77;;;12.55;;
49412;SDS011;35493;50.276;9.372;2022-11-20T09:54:05;24.02;;;12.13;;
49412;SDS011;35493;50.276;9.372;2022-11-20T09:56:41;28.17;;;12.37;;
49412;SDS011;35493;50.276;9.372;2022-11-20T09:59:14;24.00;;;11.88;;
49412;SDS011;35493;50.276;9.372;2022-11-20T10:01:53;27.02;;;12.68;;
49412;SDS011;35493;50.276;9.372;2022-11-20T10:04:21;26.95;;;13.07;;
49412;SDS011;35493;50.276;9.372;2022-11-20T10:06:50;28.52;;;12.90;;
49412;SDS011;35493;50.276;9.372;2022-11-20T10:09:27;26.27;;;12.68;;
49412;SDS011;35493;50.276;9.372;2022-11-20T10:12:01;27.13;;;11.15;;
49412;SDS011;35493;50.276;9.372;2022-11-20T10:14:42;25.00;;;12.23;;
49412;SDS011;35493;50.276;9.372;2022-11-20T10:17:22;25.30;;;11.63;;
49412;SDS011;35493;50.276;9.372;2022-11-20T10:20:02;27.30;;;12.27;;
49412;SDS011;35493;50.276;9.372;2022-11-20T10:22:47;25.13;;;12.45;;
49412;SDS011;35493;50.276;9.372;2022-11-20T10:25:33;20.23;;;10.50;;
49412;SDS011;35493;50.276;9.372;2022-11-20T10:28:09;23.23;;;10.32;;
49412;SDS011;35493;50.276;9.372;2022-11-20T10:30:43;22.98;;;11.05;;
49412;SDS011;35493;50.276;9.372;2022-11-20T10:33:16;22.98;;;11.30;;
49412;SDS011;35493;50.276;9.372;2022-11-20T10:35:45;21.67;;;10.82;;
49412;SDS011;35493;50.276;9.372;2022-11-20T10:38:20;20.10;;;10.60;;
49412;SDS011;35493;50.276;9.372;2022-11-20T10:40:51;24.48;;;11.57;;
49412;SDS011;35493;50.276;9.372;2022-11-20T10:43:41;22.10;;;10.77;;
49412;SDS011;35493;50.276;9.372;2022-11-20T10:46:12;23.67;;;10.93;;
49412;SDS011;35493;50.276;9.372;2022-11-20T10:48:43;24.20;;;11.48;;
49412;SDS011;35493;50.276;9.372;2022-11-20T10:51:13;22.02;;;10.80;;
49412;SDS011;35493;50.276;9.372;2022-11-20T10:53:53;25.95;;;12.02;;
49412;SDS011;35493;50.276;9.372;2022-11-20T10:56:25;24.30;;;11.40;;
49412;SDS011;35493;50.276;9.372;2022-11-20T10:59:03;22.40;;;10.63;;
49412;SDS011;35493;50.276;9.372;2022-11-20T11:01:47;21.80;;;10.45;;
49412;SDS011;35493;50.276;9.372;2022-11-20T11:04:18;22.08;;;10.48;;
49412;SDS011;35493;50.276;9.372;2022-11-20T11:07:02;22.98;;;10.38;;
49412;SDS011;35493;50.276;9.372;2022-11-20T11:09:37;22.58;;;10.40;;
49412;SDS011;35493;50.276;9.372;2022-11-20T11:12:07;24.52;;;11.52;;
49412;SDS011;35493;50.276;9.372;2022-11-20T11:14:42;22.23;;;10.50;;
49412;SDS011;35493;50.276;9.372;2022-11-20T11:17:22;22.98;;;10.43;;
49412;SDS011;35493;50.276;9.372;2022-11-20T11:19:59;23.35;;;10.82;;
49412;SDS011;35493;50.276;9.372;2022-11-20T11:22:28;21.63;;;10.20;;
49412;SDS011;35493;50.276;9.372;2022-11-20T11:24:56;20.77;;;10.60;;
49412;SDS011;35493;50.276;9.372;2022-11-20T11:27:23;20.00;;;8.73;;
49412;SDS011;35493;50.276;9.372;2022-11-20T11:29:50;20.23;;;10.23;;
49412;SDS011;35493;50.276;9.372;2022-11-20T11:32:30;21.63;;;9.20;;
49412;SDS011;35493;50.276;9.372;2022-11-20T11:35:00;18.85;;;9.13;;
49412;SDS011;35493;50.276;9.372;2022-11-20T11:37:33;17.13;;;7.93;;
49412;SDS011;35493;50.276;9.372;2022-11-20T11:40:02;15.02;;;7.72;;
49412;SDS011;35493;50.276;9.372;2022-11-20T11:42:31;15.43;;;7.70;;
49412;SDS011;35493;50.276;9.372;2022-11-20T11:44:59;16.15;;;7.53;;
49412;SDS011;35493;50.276;9.372;2022-11-20T11:47:33;18.23;;;7.72;;
49412;SDS011;35493;50.276;9.372;2022-11-20T11:50:14;16.88;;;7.85;;
49412;SDS011;35493;50.276;9.372;2022-11-20T11:52:44;16.02;;;7.90;;
49412;SDS011;35493;50.276;9.372;2022-11-20T11:55:15;15.27;;;8.02;;
49412;SDS011;35493;50.276;9.372;2022-11-20T11:57:49;17.05;;;9.05;;
49412;SDS011;35493;50.276;9.372;2022-11-20T12:00:22;18.88;;;7.88;;
49412;SDS011;35493;50.276;9.372;2022-11-20T12:02:56;15.25;;;7.45;;
49412;SDS011;35493;50.276;9.372;2022-11-20T12:05:30;16.52;;;8.90;;
49412;SDS011;35493;50.276;9.372;2022-11-20T12:08:03;15.45;;;7.68;;
49412;SDS011;35493;50.276;9.372;2022-11-20T12:10:39;14.93;;;7.13;;
49412;SDS011;35493;50.276;9.372;2022-11-20T12:13:15;15.55;;;7.80;;
49412;SDS011;35493;50.276;9.372;2022-11-20T12:15:47;17.63;;;8.88;;
49412;SDS011;35493;50.276;9.372;2022-11-20T12:18:17;17.65;;;8.63;;
49412;SDS011;35493;50.276;9.372;2022-11-20T12:23:17;17.73;;;7.65;;
49412;SDS011;35493;50.276;9.372;2022-11-20T12:25:53;17.75;;;8.77;;
49412;SDS011;35493;50.276;9.372;2022-11-20T12:28:26;16.27;;;8.23;;
49412;SDS011;35493;50.276;9.372;2022-11-20T12:31:08;16.10;;;8.13;;
49412;SDS011;35493;50.276;9.372;2022-11-20T12:34:00;16.95;;;9.30;;
49412;SDS011;35493;50.276;9.372;2022-11-20T12:36:43;16.83;;;8.32;;
49412;SDS011;35493;50.276;9.372;2022-11-20T12:39:30;15.68;;;8.52;;
49412;SDS011;35493;50.276;9.372;2022-11-20T12:45:35;16.92;;;8.18;;
49412;SDS011;35493;50.276;9.372;2022-11-20T12:48:17;16.23;;;8.27;;
49412;SDS011;35493;50.276;9.372;2022-11-20T12:51:06;15.52;;;8.18;;
49412;SDS011;35493;50.276;9.372;2022-11-20T12:53:50;15.98;;;8.30;;
49412;SDS011;35493;50.276;9.372;2022-11-20T12:56:29;17.03;;;8.50;;
49412;SDS011;35493;50.276;9.372;2022-11-20T12:59:08;15.98;;;8.95;;
49412;SDS011;35493;50.276;9.372;2022-11-20T13:01:50;15.27;;;8.15;;
49412;SDS011;35493;50.276;9.372;2022-11-20T13:04:26;17.02;;;9.23;;
49412;SDS011;35493;50.276;9.372;2022-11-20T13:07:17;16.75;;;8.27;;
49412;SDS011;35493;50.276;9.372;2022-11-20T13:09:46;15.75;;;8.60;;
49412;SDS011;35493;50.276;9.372;2022-11-20T13:12:16;15.50;;;7.50;;
49412;SDS011;35493;50.276;9.372;2022-11-20T13:14:50;16.35;;;8.88;;
49412;SDS011;35493;50.276;9.372;2022-11-20T13:17:23;15.93;;;8.38;;
49412;SDS011;35493;50.276;9.372;2022-11-20T13:19:57;14.30;;;7.30;;
49412;SDS011;35493;50.276;9.372;2022-11-20T13:22:26;15.65;;;8.10;;
49412;SDS011;35493;50.276;9.372;2022-11-20T13:24:54;14.73;;;7.93;;
49412;SDS011;35493;50.276;9.372;2022-11-20T13:27:21;15.90;;;7.13;;
49412;SDS011;35493;50.276;9.372;2022-11-20T13:29:59;13.70;;;7.47;;
49412;SDS011;35493;50.276;9.372;2022-11-20T13:32:29;13.15;;;6.93;;
49412;SDS011;35493;50.276;9.372;2022-11-20T13:34:58;17.27;;;7.82;;
49412;SDS011;35493;50.276;9.372;2022-11-20T13:37:29;15.43;;;8.40;;
49412;SDS011;35493;50.276;9.372;2022-11-20T13:40:05;11.35;;;6.93;;
49412;SDS011;35493;50.276;9.372;2022-11-20T13:42:39;12.90;;;6.73;;
49412;SDS011;35493;50.276;9.372;2022-11-20T13:45:11;13.82;;;7.07;;
49412;SDS011;35493;50.276;9.372;2022-11-20T13:47:49;14.80;;;7.68;;
49412;SDS011;35493;50.276;9.372;2022-11-20T13:50:18;15.33;;;8.10;;
49412;SDS011;35493;50.276;9.372;2022-11-20T13:52:50;14.20;;;7.57;;
49412;SDS011;35493;50.276;9.372;2022-11-20T13:55:28;16.33;;;8.77;;
49412;SDS011;35493;50.276;9.372;2022-11-20T13:58:04;16.10;;;8.85;;
49412;SDS011;35493;50.276;9.372;2022-11-20T14:00:43;16.40;;;8.85;;
49412;SDS011;35493;50.276;9.372;2022-11-20T14:03:14;20.15;;;9.57;;
49412;SDS011;35493;50.276;9.372;2022-11-20T14:05:48;18.23;;;8.98;;
49412;SDS011;35493;50.276;9.372;2022-11-20T14:08:23;19.20;;;9.10;;
49412;SDS011;35493;50.276;9.372;2022-11-20T14:11:04;20.63;;;9.50;;
49412;SDS011;35493;50.276;9.372;2022-11-20T14:13:32;17.80;;;8.63;;
49412;SDS011;35493;50.276;9.372;2022-11-20T14:16:02;19.33;;;10.27;;
49412;SDS011;35493;50.276;9.372;2022-11-20T14:18:29;17.27;;;9.00;;
49412;SDS011;35493;50.276;9.372;2022-11-20T14:20:59;18.77;;;10.07;;
49412;SDS011;35493;50.276;9.372;2022-11-20T14:23:28;20.38;;;10.35;;
49412;SDS011;35493;50.276;9.372;2022-11-20T14:25:55;20.45;;;9.57;;
49412;SDS011;35493;50.276;9.372;2022-11-20T14:28:24;19.33;;;9.75;;
49412;SDS011;35493;50.276;9.372;2022-11-20T14:30:53;20.25;;;9.43;;
49412;SDS011;35493;50.276;9.372;2022-11-20T14:33:21;19.10;;;10.32;;
49412;SDS011;35493;50.276;9.372;2022-11-20T14:35:51;21.02;;;10.18;;
49412;SDS011;35493;50.276;9.372;2022-11-20T14:38:21;22.65;;;10.82;;
49412;SDS011;35493;50.276;9.372;2022-11-20T14:40:52;19.42;;;10.15;;
49412;SDS011;35493;50.276;9.372;2022-11-20T14:43:20;21.77;;;10.40;;
49412;SDS011;35493;50.276;9.372;2022-11-20T14:45:52;22.52;;;10.00;;
49412;SDS011;35493;50.276;9.372;2022-11-20T14:48:23;22.38;;;10.35;;
49412;SDS011;35493;50.276;9.372;2022-11-20T14:50:55;21.27;;;10.30;;
49412;SDS011;35493;50.276;9.372;2022-11-20T14:53:23;24.02;;;10.98;;
49412;SDS011;35493;50.276;9.372;2022-11-20T14:55:55;26.75;;;12.48;;
49412;SDS011;35493;50.276;9.372;2022-11-20T14:58:24;23.05;;;10.88;;